National Weather Service Raw Text Product

Displaying AFOS PIL: TAFDSM Received: 2017-11-15 05:20 UTC


446 
FTUS43 KDMX 150520
TAFDSM
TAF
KDSM 150520Z 1506/1606 19008KT 2SM -RADZ BR OVC004
     FM150800 24006KT 6SM BR SCT004 OVC011
     FM151000 29009KT P6SM BKN011
     FM151100 30012G19KT P6SM SCT014
     FM151500 32013G21KT P6SM FEW250
     FM160100 32009KT P6SM FEW250=